createdAt,value
2019-03-24T00:02:23.133Z,22.57
2019-03-24T00:06:36.275Z,23.03
2019-03-24T00:10:49.022Z,22.63
2019-03-24T00:15:02.121Z,22.63
2019-03-24T00:19:15.359Z,22.60
2019-03-24T00:23:28.159Z,23.67
2019-03-24T00:27:41.144Z,24.00
2019-03-24T00:31:55.470Z,23.53
2019-03-24T00:36:08.668Z,24.97
2019-03-24T00:40:21.839Z,25.43
2019-03-24T00:44:35.011Z,25.90
2019-03-24T00:48:49.032Z,24.90
2019-03-24T00:53:02.462Z,25.70
2019-03-24T00:57:15.708Z,26.83
2019-03-24T01:01:28.542Z,26.77
2019-03-24T01:05:41.602Z,27.20
2019-03-24T01:09:54.814Z,26.93
2019-03-24T01:14:07.715Z,27.10
2019-03-24T01:18:20.757Z,28.07
2019-03-24T01:22:34.421Z,26.67
2019-03-24T01:26:47.661Z,26.53
2019-03-24T01:31:00.625Z,27.10
2019-03-24T01:35:13.859Z,27.10
2019-03-24T01:39:27.205Z,28.20
2019-03-24T01:43:40.524Z,28.83
2019-03-24T01:47:54.568Z,29.13
2019-03-24T01:52:07.656Z,29.07
2019-03-24T01:56:20.648Z,27.57
2019-03-24T02:00:33.724Z,27.80
2019-03-24T02:04:47.383Z,28.10
2019-03-24T02:09:01.028Z,28.10
2019-03-24T02:13:14.252Z,27.20
2019-03-24T02:17:27.572Z,26.93
2019-03-24T02:21:40.414Z,27.07
2019-03-24T02:25:53.630Z,26.93
2019-03-24T02:30:06.942Z,27.37
2019-03-24T02:34:20.027Z,28.40
2019-03-24T02:38:33.201Z,29.03
2019-03-24T02:42:46.500Z,28.20
2019-03-24T02:47:00.433Z,28.67
2019-03-24T02:51:13.589Z,27.50
2019-03-24T02:55:26.905Z,25.00
2019-03-24T02:59:39.957Z,27.03
2019-03-24T03:03:52.961Z,27.47
2019-03-24T03:08:06.905Z,27.23
2019-03-24T03:12:19.936Z,27.17
2019-03-24T03:16:38.650Z,27.03
2019-03-24T03:20:47.557Z,26.43
2019-03-24T03:25:00.859Z,27.87
2019-03-24T03:29:14.220Z,27.40
2019-03-24T03:33:27.979Z,26.23
2019-03-24T03:37:41.353Z,27.43
2019-03-24T03:41:54.642Z,27.33
2019-03-24T03:46:07.865Z,28.87
2019-03-24T03:50:20.785Z,28.00
2019-03-24T03:54:33.925Z,27.63
2019-03-24T03:58:47.152Z,28.83
2019-03-24T04:03:00.149Z,28.20
2019-03-24T04:07:13.271Z,29.27
2019-03-24T04:11:26.456Z,28.50
2019-03-24T04:15:39.286Z,29.17
2019-03-24T04:19:52.309Z,26.90
2019-03-24T04:24:05.657Z,27.53
2019-03-24T04:28:19.314Z,26.97
2019-03-24T04:32:32.491Z,28.10
2019-03-24T04:36:45.531Z,27.30
2019-03-24T04:40:58.693Z,26.37
2019-03-24T04:45:11.921Z,27.90
2019-03-24T04:49:25.059Z,28.07
2019-03-24T04:53:38.179Z,30.83
2019-03-24T04:57:51.269Z,27.57
2019-03-24T05:02:04.772Z,28.83
2019-03-24T05:06:18.215Z,28.83
2019-03-24T05:10:32.074Z,29.47
2019-03-24T05:14:45.280Z,30.60
2019-03-24T05:18:58.418Z,29.73
2019-03-24T05:23:11.352Z,32.00
2019-03-24T05:27:24.379Z,32.00
2019-03-24T05:31:38.044Z,32.60
2019-03-24T05:35:51.685Z,32.37
2019-03-24T05:40:04.972Z,32.53
2019-03-24T05:44:17.929Z,33.90
2019-03-24T05:48:30.859Z,33.60
2019-03-24T05:52:44.087Z,32.40
2019-03-24T05:56:57.962Z,34.33
2019-03-24T06:01:11.610Z,32.50
2019-03-24T06:05:25.477Z,34.30
2019-03-24T06:09:38.667Z,34.50
2019-03-24T06:13:52.242Z,34.83
2019-03-24T06:18:05.978Z,35.13
2019-03-24T06:22:19.624Z,33.90
2019-03-24T06:26:33.268Z,35.33
2019-03-24T06:30:46.480Z,34.33
2019-03-24T06:34:59.619Z,35.13
2019-03-24T06:39:12.745Z,35.60
2019-03-24T06:43:25.846Z,36.87
2019-03-24T06:47:39.137Z,36.07
2019-03-24T06:51:52.449Z,37.00
2019-03-24T06:56:05.760Z,37.13
2019-03-24T07:00:18.956Z,36.60
2019-03-24T07:04:32.256Z,38.33
2019-03-24T07:08:45.460Z,35.50
2019-03-24T07:12:58.420Z,35.63
2019-03-24T07:17:11.550Z,36.37
2019-03-24T07:21:24.785Z,35.43
2019-03-24T07:25:37.738Z,35.87
2019-03-24T07:29:51.970Z,35.20
2019-03-24T07:34:05.371Z,36.37
2019-03-24T07:38:18.430Z,34.80
2019-03-24T07:42:31.732Z,35.87
2019-03-24T07:46:44.812Z,37.57
2019-03-24T07:50:58.375Z,34.47
2019-03-24T07:55:11.792Z,35.67
2019-03-24T07:59:24.921Z,33.20
2019-03-24T08:03:37.747Z,32.87
2019-03-24T08:07:50.880Z,31.67
2019-03-24T08:12:04.078Z,32.07
2019-03-24T08:16:17.044Z,30.23
2019-03-24T08:20:30.077Z,29.50
2019-03-24T08:24:43.208Z,30.50
2019-03-24T08:28:56.036Z,27.37
2019-03-24T08:33:11.361Z,27.97
2019-03-24T08:37:24.622Z,26.93
2019-03-24T08:41:38.806Z,29.20
2019-03-24T08:45:51.868Z,26.27
2019-03-24T08:50:05.088Z,23.83
2019-03-24T08:54:18.456Z,23.50
2019-03-24T08:58:32.283Z,25.30
2019-03-24T09:02:45.501Z,22.00
2019-03-24T09:06:58.869Z,22.07
2019-03-24T09:11:11.948Z,21.33
2019-03-24T09:15:25.007Z,20.40
2019-03-24T09:19:38.252Z,22.13
2019-03-24T09:23:51.568Z,21.17
2019-03-24T09:28:04.523Z,21.87
2019-03-24T09:32:17.527Z,19.27
2019-03-24T09:36:30.720Z,19.23
2019-03-24T09:40:43.749Z,20.27
2019-03-24T09:44:56.886Z,17.33
2019-03-24T09:49:10.060Z,19.97
2019-03-24T09:53:22.989Z,18.90
2019-03-24T09:57:36.121Z,19.67
2019-03-24T10:01:49.781Z,19.17
2019-03-24T10:06:03.430Z,18.10
2019-03-24T10:10:16.635Z,19.00
2019-03-24T10:14:29.937Z,17.87
2019-03-24T10:18:42.810Z,15.60
2019-03-24T10:22:55.939Z,15.90
2019-03-24T10:27:09.897Z,16.70
2019-03-24T10:31:23.124Z,18.30
2019-03-24T10:35:36.361Z,23.00
2019-03-24T10:39:49.347Z,23.07
2019-03-24T10:44:02.476Z,22.83
2019-03-24T10:48:15.856Z,23.13
2019-03-24T10:52:28.584Z,23.00
2019-03-24T10:56:41.711Z,21.87
2019-03-24T11:00:54.860Z,22.27
2019-03-24T11:05:07.870Z,20.80
2019-03-24T11:09:20.972Z,21.20
2019-03-24T11:13:34.238Z,22.60
2019-03-24T11:17:47.540Z,19.80
2019-03-24T11:22:00.405Z,18.10
2019-03-24T11:26:13.548Z,16.67
2019-03-24T11:30:26.769Z,16.47
2019-03-24T11:34:39.712Z,15.80
2019-03-24T11:38:53.101Z,14.63
2019-03-24T11:43:06.379Z,16.93
2019-03-24T11:47:26.584Z,15.43
2019-03-24T11:51:34.791Z,15.17
2019-03-24T11:55:47.723Z,15.17
2019-03-24T12:00:00.952Z,15.80
2019-03-24T12:04:14.615Z,15.00
2019-03-24T12:08:28.257Z,15.00
2019-03-24T12:12:41.524Z,14.63
2019-03-24T12:16:54.812Z,15.87
2019-03-24T12:21:07.807Z,14.87
2019-03-24T12:25:20.975Z,15.27
2019-03-24T12:29:34.213Z,15.97
2019-03-24T12:33:47.622Z,16.93
2019-03-24T12:38:00.548Z,18.20
2019-03-24T12:42:13.885Z,17.87
2019-03-24T12:46:27.155Z,18.47
2019-03-24T12:50:40.147Z,17.03
2019-03-24T12:54:53.243Z,18.07
2019-03-24T12:59:06.684Z,16.07
2019-03-24T13:03:19.500Z,16.13
2019-03-24T13:07:32.523Z,14.03
2019-03-24T13:11:45.838Z,13.67
2019-03-24T13:15:58.668Z,14.03
2019-03-24T13:20:20.180Z,14.53
2019-03-24T13:24:26.998Z,11.50
2019-03-24T13:28:40.929Z,11.97
2019-03-24T13:32:54.057Z,10.90
2019-03-24T13:37:06.884Z,8.83
2019-03-24T13:41:20.072Z,9.50
2019-03-24T13:45:33.678Z,9.07
2019-03-24T13:49:47.322Z,8.53
2019-03-24T13:54:00.532Z,7.53
2019-03-24T13:58:13.876Z,6.40
2019-03-24T14:02:26.797Z,6.13
2019-03-24T14:06:40.006Z,6.60
2019-03-24T14:10:53.269Z,5.33
2019-03-24T14:15:06.663Z,5.13
2019-03-24T14:19:19.604Z,4.20
2019-03-24T14:23:32.668Z,4.47
2019-03-24T14:27:45.805Z,4.07
2019-03-24T14:31:58.733Z,4.00
2019-03-24T14:36:11.855Z,3.37
2019-03-24T14:40:25.626Z,3.10
2019-03-24T14:44:39.012Z,3.47
2019-03-24T14:48:52.396Z,2.83
2019-03-24T14:53:05.368Z,3.20
2019-03-24T14:57:18.398Z,3.23
2019-03-24T15:01:32.106Z,2.37
2019-03-24T15:05:45.320Z,2.30
2019-03-24T15:09:58.168Z,2.73
2019-03-24T15:14:11.220Z,2.30
2019-03-24T15:18:24.948Z,2.30
2019-03-24T15:22:38.588Z,2.73
2019-03-24T15:26:52.233Z,2.33
2019-03-24T15:31:06.031Z,2.90
2019-03-24T15:35:19.220Z,3.30
2019-03-24T15:39:32.499Z,3.03
2019-03-24T15:43:45.653Z,2.57
2019-03-24T15:47:58.641Z,2.70
2019-03-24T15:52:11.920Z,2.50
2019-03-24T15:56:24.715Z,3.23
2019-03-24T16:00:48.426Z,3.53
2019-03-24T16:05:02.102Z,3.80
2019-03-24T16:09:15.765Z,3.30
2019-03-24T16:13:29.386Z,3.87
2019-03-24T16:17:42.600Z,4.43
2019-03-24T16:21:56.856Z,4.70
2019-03-24T16:26:09.955Z,4.13
2019-03-24T16:30:23.657Z,5.20
2019-03-24T16:34:37.300Z,4.57
2019-03-24T16:38:50.516Z,4.53
2019-03-24T16:43:03.436Z,4.97
2019-03-24T16:47:16.572Z,4.70
2019-03-24T16:51:38.190Z,4.83
2019-03-24T16:55:44.236Z,5.00
2019-03-24T16:59:57.217Z,5.20
2019-03-24T17:04:10.471Z,5.87
2019-03-24T17:08:23.868Z,4.90
2019-03-24T17:12:36.840Z,4.87
2019-03-24T17:16:50.008Z,5.23
2019-03-24T17:21:03.699Z,5.33
2019-03-24T17:25:17.344Z,5.13
2019-03-24T17:29:30.990Z,4.77
2019-03-24T17:33:44.971Z,4.87
2019-03-24T17:37:58.055Z,4.57
2019-03-24T17:42:11.348Z,5.70
2019-03-24T17:46:24.320Z,6.03
2019-03-24T17:50:37.252Z,4.50
2019-03-24T17:54:50.941Z,4.63
2019-03-24T17:59:04.321Z,4.83
2019-03-24T18:03:17.473Z,4.70
2019-03-24T18:07:30.434Z,5.17
2019-03-24T18:11:43.622Z,5.33
2019-03-24T18:15:56.804Z,5.17
2019-03-24T18:20:10.192Z,4.17
2019-03-24T18:24:23.119Z,3.60
2019-03-24T18:28:36.157Z,4.20
2019-03-24T18:32:49.525Z,3.77
2019-03-24T18:37:02.773Z,3.57
2019-03-24T18:41:15.825Z,3.80
2019-03-24T18:45:29.020Z,4.27
2019-03-24T18:49:42.325Z,4.73
2019-03-24T18:53:55.264Z,5.27
2019-03-24T18:58:08.383Z,4.57
2019-03-24T19:02:21.580Z,5.07
2019-03-24T19:06:35.284Z,4.63
2019-03-24T19:10:48.928Z,5.27
2019-03-24T19:15:02.140Z,5.03
2019-03-24T19:19:15.706Z,5.10
2019-03-24T19:23:28.612Z,4.47
2019-03-24T19:27:41.543Z,5.70
2019-03-24T19:31:54.713Z,5.53
2019-03-24T19:36:07.661Z,5.47
2019-03-24T19:40:31.690Z,4.80
2019-03-24T19:44:45.000Z,4.80
2019-03-24T19:48:57.850Z,4.73
2019-03-24T19:53:10.882Z,4.40
2019-03-24T19:57:24.831Z,4.30
2019-03-24T20:01:37.972Z,5.03
2019-03-24T20:05:51.273Z,4.60
2019-03-24T20:10:04.234Z,4.80
2019-03-24T20:14:17.254Z,4.70
2019-03-24T20:18:30.927Z,5.57
2019-03-24T20:22:55.379Z,5.53
2019-03-24T20:26:58.920Z,5.80
2019-03-24T20:31:11.836Z,5.47
2019-03-24T20:35:25.041Z,5.83
2019-03-24T20:39:38.306Z,6.40
2019-03-24T20:43:51.335Z,5.57
2019-03-24T20:48:04.372Z,6.20
2019-03-24T20:52:17.601Z,5.80
2019-03-24T20:56:30.840Z,5.67
2019-03-24T21:00:43.770Z,7.13
2019-03-24T21:04:56.828Z,6.03
2019-03-24T21:09:10.735Z,6.47
2019-03-24T21:13:23.774Z,7.03
2019-03-24T21:17:37.009Z,7.73
2019-03-24T21:21:49.940Z,8.23
2019-03-24T21:26:02.973Z,8.57
2019-03-24T21:30:17.815Z,9.70
2019-03-24T21:34:30.663Z,9.80
2019-03-24T21:38:43.869Z,10.20
2019-03-24T21:42:57.568Z,11.30
2019-03-24T21:47:10.888Z,10.93
2019-03-24T21:51:24.181Z,12.97
2019-03-24T21:55:38.777Z,11.90
2019-03-24T21:59:51.812Z,13.47
2019-03-24T22:04:05.055Z,12.33
2019-03-24T22:08:18.289Z,11.70
2019-03-24T22:12:31.277Z,12.03
2019-03-24T22:16:44.352Z,12.33
2019-03-24T22:20:57.581Z,11.37
2019-03-24T22:25:10.508Z,10.50
2019-03-24T22:29:23.441Z,9.53
2019-03-24T22:33:36.668Z,10.10
2019-03-24T22:37:49.903Z,9.90
2019-03-24T22:42:02.900Z,9.27
2019-03-24T22:46:16.047Z,9.93
2019-03-24T22:50:32.786Z,8.87
2019-03-24T22:54:47.814Z,9.30
2019-03-24T22:59:01.816Z,9.80
2019-03-24T23:03:14.897Z,10.37
2019-03-24T23:07:28.613Z,10.33
2019-03-24T23:11:42.575Z,10.03
2019-03-24T23:15:55.680Z,11.10
2019-03-24T23:20:08.912Z,10.70
2019-03-24T23:24:21.745Z,11.23
2019-03-24T23:28:34.764Z,10.90
2019-03-24T23:32:48.431Z,10.90
2019-03-24T23:37:02.077Z,10.53
2019-03-24T23:41:15.722Z,10.90
2019-03-24T23:45:29.006Z,11.30
2019-03-24T23:49:42.270Z,10.90
2019-03-24T23:53:55.200Z,12.43
2019-03-24T23:58:08.228Z,12.07
